Franklin Municipal-John Beverly Rose Airport

About
Name: Franklin Municipal-John Beverly Rose Airport
Identifier:  FKN/KFKN
Local Time:  18. Aug 12:58 EDT
Location
Flights per Day
0 flights
Distance: 210km (131mi)
Punctuality
50% (0 flights per day delayed)
Delay Average: 11 minutes
Current Weather
 29 C (Humidity: 70%)
  3kt (5km/h / 3mph) from 100°
  Scattered clouds at 3,000 feet (914 meter)
  Broken clouds at 4,000 feet (1,219 meter)
  16km (10 mi.)
 METAR KFKN 181635Z AUTO 10003KT 10SM SCT030 BKN040 29/23 A3003 RMK AO2 T02940232

Current Flights

Departures
Number Departure To Airline
Arrivals
Number Arrival From Airline

Current Delays

Departures
N/A
Arrivals
N/A

Destinations

Top Destinations
Airport Flights
per week
Seats
per week
  Richmond (RIC) 0 - 0 0
  Charlottesville (CHO) 0 - 0 0
  Staunton (SHD) 0 - 0 0
  Vidalia (VDI) 0 - 0 0

Airlines & Planes

Top Airlines
Airline Flights
per Day
Seats
per Day
Jet Charter Inc ( Franklin Lakes Nj ) 0 -
  Flybe Nordic 0 -
  Novair 0 -
  Nolinor Aviation 0 -
Nordwind Airlines 0 -
Top Plane Types
Model Flights Seats
Piper PA28-181 0.1/day - 0
Cessna C172 0.1/day - 0
Cessna C150 0.0/day - 0